Terminal Aerodrome Forecast
Issued by NWS

Home | Current Version | Previous Version | Graphics & Text | Print | Product List | Glossary On
Versions: 1 2 3 4 5 6 7 8 9 10 11 12
139
FTUS43 KICT 071732
TAFSLN
TAF
KSLN 071732Z 0718/0818 32018G24KT P6SM SCT070 BKN120
     FM072000 31025G34KT P6SM SCT120
     FM080100 31018G24KT P6SM SCT200
     FM081600 33027G37KT P6SM SCT250=

USA.gov is the U.S. government's official web portal to all federal, state and local government web resources and services.